sensor_id;sensor_type;location;lat;lon;timestamp;P1;durP1;ratioP1;P2;durP2;ratioP2
9767;SDS011;4923;52.520;13.494;2023-07-29T00:02:03;15.70;;;8.60;;
9767;SDS011;4923;52.520;13.494;2023-07-29T00:04:51;10.90;;;8.13;;
9767;SDS011;4923;52.520;13.494;2023-07-29T00:07:38;10.23;;;8.77;;
9767;SDS011;4923;52.520;13.494;2023-07-29T00:10:25;13.33;;;9.03;;
9767;SDS011;4923;52.520;13.494;2023-07-29T00:13:12;9.30;;;8.20;;
9767;SDS011;4923;52.520;13.494;2023-07-29T00:15:59;9.53;;;8.60;;
9767;SDS011;4923;52.520;13.494;2023-07-29T00:18:45;8.20;;;7.40;;
9767;SDS011;4923;52.520;13.494;2023-07-29T00:21:34;12.93;;;9.27;;
9767;SDS011;4923;52.520;13.494;2023-07-29T00:24:21;8.40;;;7.60;;
9767;SDS011;4923;52.520;13.494;2023-07-29T00:27:07;10.33;;;9.43;;
9767;SDS011;4923;52.520;13.494;2023-07-29T00:29:54;10.97;;;8.80;;
9767;SDS011;4923;52.520;13.494;2023-07-29T00:32:41;10.70;;;9.37;;
9767;SDS011;4923;52.520;13.494;2023-07-29T00:35:28;13.30;;;9.57;;
9767;SDS011;4923;52.520;13.494;2023-07-29T00:38:16;9.70;;;8.80;;
9767;SDS011;4923;52.520;13.494;2023-07-29T00:41:03;8.97;;;8.17;;
9767;SDS011;4923;52.520;13.494;2023-07-29T00:43:50;11.23;;;9.50;;
9767;SDS011;4923;52.520;13.494;2023-07-29T00:46:37;11.77;;;10.33;;
9767;SDS011;4923;52.520;13.494;2023-07-29T00:49:25;17.83;;;10.20;;
9767;SDS011;4923;52.520;13.494;2023-07-29T00:52:12;12.20;;;9.50;;
9767;SDS011;4923;52.520;13.494;2023-07-29T00:55:00;13.47;;;9.70;;
9767;SDS011;4923;52.520;13.494;2023-07-29T00:57:47;16.17;;;10.40;;
9767;SDS011;4923;52.520;13.494;2023-07-29T01:00:36;15.60;;;10.10;;
9767;SDS011;4923;52.520;13.494;2023-07-29T01:03:23;12.80;;;10.10;;
9767;SDS011;4923;52.520;13.494;2023-07-29T01:06:12;12.83;;;10.57;;
9767;SDS011;4923;52.520;13.494;2023-07-29T01:09:07;12.97;;;9.57;;
9767;SDS011;4923;52.520;13.494;2023-07-29T01:12:04;17.33;;;10.40;;
9767;SDS011;4923;52.520;13.494;2023-07-29T01:14:59;12.03;;;10.07;;
9767;SDS011;4923;52.520;13.494;2023-07-29T01:17:52;12.03;;;10.50;;
9767;SDS011;4923;52.520;13.494;2023-07-29T01:20:42;10.77;;;9.30;;
9767;SDS011;4923;52.520;13.494;2023-07-29T01:23:34;10.80;;;9.43;;
9767;SDS011;4923;52.520;13.494;2023-07-29T01:26:21;14.83;;;10.30;;
9767;SDS011;4923;52.520;13.494;2023-07-29T01:29:08;15.40;;;9.40;;
9767;SDS011;4923;52.520;13.494;2023-07-29T01:31:55;10.50;;;9.40;;
9767;SDS011;4923;52.520;13.494;2023-07-29T01:34:48;16.03;;;10.70;;
9767;SDS011;4923;52.520;13.494;2023-07-29T01:37:42;13.53;;;11.20;;
9767;SDS011;4923;52.520;13.494;2023-07-29T01:40:35;10.70;;;9.23;;
9767;SDS011;4923;52.520;13.494;2023-07-29T01:43:22;10.67;;;9.67;;
9767;SDS011;4923;52.520;13.494;2023-07-29T01:46:11;15.07;;;10.17;;
9767;SDS011;4923;52.520;13.494;2023-07-29T01:48:58;11.30;;;8.93;;
9767;SDS011;4923;52.520;13.494;2023-07-29T01:51:45;11.07;;;10.03;;
9767;SDS011;4923;52.520;13.494;2023-07-29T01:54:31;17.00;;;9.53;;
9767;SDS011;4923;52.520;13.494;2023-07-29T01:57:20;13.00;;;9.03;;
9767;SDS011;4923;52.520;13.494;2023-07-29T02:00:07;13.87;;;10.20;;
9767;SDS011;4923;52.520;13.494;2023-07-29T02:02:54;12.63;;;9.97;;
9767;SDS011;4923;52.520;13.494;2023-07-29T02:05:41;19.80;;;10.37;;
9767;SDS011;4923;52.520;13.494;2023-07-29T02:08:29;15.93;;;11.10;;
9767;SDS011;4923;52.520;13.494;2023-07-29T02:11:15;11.77;;;10.57;;
9767;SDS011;4923;52.520;13.494;2023-07-29T02:14:04;10.57;;;9.57;;
9767;SDS011;4923;52.520;13.494;2023-07-29T02:16:50;10.93;;;9.70;;
9767;SDS011;4923;52.520;13.494;2023-07-29T02:19:37;12.90;;;10.27;;
9767;SDS011;4923;52.520;13.494;2023-07-29T02:22:24;11.27;;;10.17;;
9767;SDS011;4923;52.520;13.494;2023-07-29T02:25:11;13.50;;;10.80;;
9767;SDS011;4923;52.520;13.494;2023-07-29T02:27:58;15.23;;;10.40;;
9767;SDS011;4923;52.520;13.494;2023-07-29T02:30:46;10.87;;;9.80;;
9767;SDS011;4923;52.520;13.494;2023-07-29T02:33:34;11.23;;;9.20;;
9767;SDS011;4923;52.520;13.494;2023-07-29T02:36:21;15.10;;;9.97;;
9767;SDS011;4923;52.520;13.494;2023-07-29T02:39:08;15.57;;;10.40;;
9767;SDS011;4923;52.520;13.494;2023-07-29T02:41:55;12.23;;;9.40;;
9767;SDS011;4923;52.520;13.494;2023-07-29T02:44:43;11.30;;;10.20;;
9767;SDS011;4923;52.520;13.494;2023-07-29T02:47:31;12.33;;;10.37;;
9767;SDS011;4923;52.520;13.494;2023-07-29T02:50:18;15.07;;;10.63;;
9767;SDS011;4923;52.520;13.494;2023-07-29T02:53:05;12.23;;;10.67;;
9767;SDS011;4923;52.520;13.494;2023-07-29T02:55:52;10.33;;;9.23;;
9767;SDS011;4923;52.520;13.494;2023-07-29T02:58:39;12.93;;;9.40;;
9767;SDS011;4923;52.520;13.494;2023-07-29T03:01:26;13.13;;;10.00;;
9767;SDS011;4923;52.520;13.494;2023-07-29T03:04:14;14.17;;;9.60;;
9767;SDS011;4923;52.520;13.494;2023-07-29T03:07:01;17.87;;;10.63;;
9767;SDS011;4923;52.520;13.494;2023-07-29T03:09:48;15.67;;;10.80;;
9767;SDS011;4923;52.520;13.494;2023-07-29T03:12:35;12.13;;;9.53;;
9767;SDS011;4923;52.520;13.494;2023-07-29T03:15:22;10.43;;;9.43;;
9767;SDS011;4923;52.520;13.494;2023-07-29T03:18:10;15.63;;;9.90;;
9767;SDS011;4923;52.520;13.494;2023-07-29T03:20:58;16.40;;;9.50;;
9767;SDS011;4923;52.520;13.494;2023-07-29T03:23:45;10.87;;;9.80;;
9767;SDS011;4923;52.520;13.494;2023-07-29T03:26:32;11.93;;;8.73;;
9767;SDS011;4923;52.520;13.494;2023-07-29T03:29:19;13.73;;;9.10;;
9767;SDS011;4923;52.520;13.494;2023-07-29T03:32:06;11.27;;;9.00;;
9767;SDS011;4923;52.520;13.494;2023-07-29T03:34:53;13.37;;;9.30;;
9767;SDS011;4923;52.520;13.494;2023-07-29T03:37:41;10.27;;;9.27;;
9767;SDS011;4923;52.520;13.494;2023-07-29T03:40:28;16.00;;;9.40;;
9767;SDS011;4923;52.520;13.494;2023-07-29T03:43:15;9.90;;;8.83;;
9767;SDS011;4923;52.520;13.494;2023-07-29T03:46:02;10.70;;;8.87;;
9767;SDS011;4923;52.520;13.494;2023-07-29T03:48:50;10.00;;;9.00;;
9767;SDS011;4923;52.520;13.494;2023-07-29T03:51:37;13.80;;;9.17;;
9767;SDS011;4923;52.520;13.494;2023-07-29T03:54:25;14.60;;;9.23;;
9767;SDS011;4923;52.520;13.494;2023-07-29T03:57:12;13.60;;;9.67;;
9767;SDS011;4923;52.520;13.494;2023-07-29T03:59:59;9.27;;;8.40;;
9767;SDS011;4923;52.520;13.494;2023-07-29T04:02:46;14.33;;;9.00;;
9767;SDS011;4923;52.520;13.494;2023-07-29T04:05:33;12.83;;;9.13;;
9767;SDS011;4923;52.520;13.494;2023-07-29T04:08:20;10.17;;;9.10;;
9767;SDS011;4923;52.520;13.494;2023-07-29T04:11:08;10.80;;;9.40;;
9767;SDS011;4923;52.520;13.494;2023-07-29T04:13:55;11.53;;;9.30;;
9767;SDS011;4923;52.520;13.494;2023-07-29T04:16:42;10.10;;;9.20;;
9767;SDS011;4923;52.520;13.494;2023-07-29T04:19:30;9.57;;;8.67;;
9767;SDS011;4923;52.520;13.494;2023-07-29T04:22:17;9.23;;;8.47;;
9767;SDS011;4923;52.520;13.494;2023-07-29T04:25:04;9.73;;;9.00;;
9767;SDS011;4923;52.520;13.494;2023-07-29T04:27:53;9.40;;;8.40;;
9767;SDS011;4923;52.520;13.494;2023-07-29T04:30:42;10.20;;;9.20;;
9767;SDS011;4923;52.520;13.494;2023-07-29T04:33:29;9.90;;;8.43;;
9767;SDS011;4923;52.520;13.494;2023-07-29T04:36:16;9.00;;;8.27;;
9767;SDS011;4923;52.520;13.494;2023-07-29T04:39:03;8.13;;;7.30;;
9767;SDS011;4923;52.520;13.494;2023-07-29T04:41:50;7.33;;;6.50;;
9767;SDS011;4923;52.520;13.494;2023-07-29T04:44:38;6.30;;;5.80;;
9767;SDS011;4923;52.520;13.494;2023-07-29T04:47:27;6.37;;;6.00;;
9767;SDS011;4923;52.520;13.494;2023-07-29T04:50:14;5.43;;;4.90;;
9767;SDS011;4923;52.520;13.494;2023-07-29T04:53:01;4.87;;;4.67;;
9767;SDS011;4923;52.520;13.494;2023-07-29T04:55:47;5.20;;;4.90;;
9767;SDS011;4923;52.520;13.494;2023-07-29T04:58:34;5.00;;;4.70;;
9767;SDS011;4923;52.520;13.494;2023-07-29T05:01:22;4.10;;;4.00;;
9767;SDS011;4923;52.520;13.494;2023-07-29T05:04:10;5.03;;;4.30;;
9767;SDS011;4923;52.520;13.494;2023-07-29T05:06:57;5.37;;;5.13;;
9767;SDS011;4923;52.520;13.494;2023-07-29T05:09:44;7.37;;;4.93;;
9767;SDS011;4923;52.520;13.494;2023-07-29T05:12:31;5.30;;;4.90;;
9767;SDS011;4923;52.520;13.494;2023-07-29T05:15:18;4.83;;;4.40;;
9767;SDS011;4923;52.520;13.494;2023-07-29T05:18:06;4.40;;;4.30;;
9767;SDS011;4923;52.520;13.494;2023-07-29T05:20:53;4.33;;;4.00;;
9767;SDS011;4923;52.520;13.494;2023-07-29T05:23:40;4.60;;;4.40;;
9767;SDS011;4923;52.520;13.494;2023-07-29T05:26:27;5.27;;;4.80;;
9767;SDS011;4923;52.520;13.494;2023-07-29T05:29:13;4.67;;;4.47;;
9767;SDS011;4923;52.520;13.494;2023-07-29T05:32:01;4.10;;;3.80;;
9767;SDS011;4923;52.520;13.494;2023-07-29T05:34:49;4.80;;;4.57;;
9767;SDS011;4923;52.520;13.494;2023-07-29T05:37:37;5.17;;;4.50;;
9767;SDS011;4923;52.520;13.494;2023-07-29T05:40:24;4.07;;;3.97;;
9767;SDS011;4923;52.520;13.494;2023-07-29T05:43:11;4.00;;;3.80;;
9767;SDS011;4923;52.520;13.494;2023-07-29T05:45:59;4.80;;;4.50;;
9767;SDS011;4923;52.520;13.494;2023-07-29T05:48:46;9.20;;;4.30;;
9767;SDS011;4923;52.520;13.494;2023-07-29T05:51:34;3.87;;;3.77;;
9767;SDS011;4923;52.520;13.494;2023-07-29T05:54:21;3.97;;;3.77;;
9767;SDS011;4923;52.520;13.494;2023-07-29T05:57:08;7.93;;;3.50;;
9767;SDS011;4923;52.520;13.494;2023-07-29T05:59:55;4.03;;;3.83;;
9767;SDS011;4923;52.520;13.494;2023-07-29T06:02:42;5.33;;;3.70;;
9767;SDS011;4923;52.520;13.494;2023-07-29T06:05:29;3.53;;;3.30;;
9767;SDS011;4923;52.520;13.494;2023-07-29T06:08:17;5.10;;;4.70;;
9767;SDS011;4923;52.520;13.494;2023-07-29T06:11:04;8.83;;;3.60;;
9767;SDS011;4923;52.520;13.494;2023-07-29T06:13:51;4.10;;;3.90;;
9767;SDS011;4923;52.520;13.494;2023-07-29T06:16:38;3.13;;;3.03;;
9767;SDS011;4923;52.520;13.494;2023-07-29T06:19:25;4.40;;;4.20;;
9767;SDS011;4923;52.520;13.494;2023-07-29T06:22:12;3.17;;;3.00;;
9767;SDS011;4923;52.520;13.494;2023-07-29T06:25:00;3.20;;;3.20;;
9767;SDS011;4923;52.520;13.494;2023-07-29T06:27:47;3.43;;;3.33;;
9767;SDS011;4923;52.520;13.494;2023-07-29T06:30:34;3.10;;;3.00;;
9767;SDS011;4923;52.520;13.494;2023-07-29T06:33:21;3.23;;;3.13;;
9767;SDS011;4923;52.520;13.494;2023-07-29T06:36:08;2.90;;;2.80;;
9767;SDS011;4923;52.520;13.494;2023-07-29T06:38:55;4.93;;;2.57;;
9767;SDS011;4923;52.520;13.494;2023-07-29T06:41:43;7.70;;;3.20;;
9767;SDS011;4923;52.520;13.494;2023-07-29T06:44:30;2.30;;;2.20;;
9767;SDS011;4923;52.520;13.494;2023-07-29T06:47:17;2.63;;;2.43;;
9767;SDS011;4923;52.520;13.494;2023-07-29T06:50:04;2.53;;;2.43;;
9767;SDS011;4923;52.520;13.494;2023-07-29T06:52:51;2.70;;;2.00;;
9767;SDS011;4923;52.520;13.494;2023-07-29T06:55:38;7.73;;;2.63;;
9767;SDS011;4923;52.520;13.494;2023-07-29T06:58:27;4.93;;;1.80;;
9767;SDS011;4923;52.520;13.494;2023-07-29T07:01:14;2.40;;;2.30;;
9767;SDS011;4923;52.520;13.494;2023-07-29T07:04:00;3.80;;;2.07;;
9767;SDS011;4923;52.520;13.494;2023-07-29T07:06:47;2.97;;;2.87;;
9767;SDS011;4923;52.520;13.494;2023-07-29T07:09:34;2.77;;;2.60;;
9767;SDS011;4923;52.520;13.494;2023-07-29T07:12:21;2.80;;;2.70;;
9767;SDS011;4923;52.520;13.494;2023-07-29T07:15:09;3.30;;;2.07;;
9767;SDS011;4923;52.520;13.494;2023-07-29T07:17:56;4.10;;;2.70;;
9767;SDS011;4923;52.520;13.494;2023-07-29T07:20:43;4.10;;;2.80;;
9767;SDS011;4923;52.520;13.494;2023-07-29T07:23:33;3.03;;;2.83;;
9767;SDS011;4923;52.520;13.494;2023-07-29T07:26:20;2.53;;;2.43;;
9767;SDS011;4923;52.520;13.494;2023-07-29T07:29:07;2.83;;;2.53;;
9767;SDS011;4923;52.520;13.494;2023-07-29T07:31:56;2.30;;;2.20;;
9767;SDS011;4923;52.520;13.494;2023-07-29T07:34:42;5.50;;;2.30;;
9767;SDS011;4923;52.520;13.494;2023-07-29T07:37:29;2.17;;;2.17;;
9767;SDS011;4923;52.520;13.494;2023-07-29T07:40:16;2.70;;;2.50;;
9767;SDS011;4923;52.520;13.494;2023-07-29T07:43:03;2.33;;;2.13;;
9767;SDS011;4923;52.520;13.494;2023-07-29T07:45:50;2.83;;;2.73;;
9767;SDS011;4923;52.520;13.494;2023-07-29T07:48:44;2.30;;;2.20;;
9767;SDS011;4923;52.520;13.494;2023-07-29T07:51:31;3.23;;;2.60;;
9767;SDS011;4923;52.520;13.494;2023-07-29T07:54:18;2.40;;;2.40;;
9767;SDS011;4923;52.520;13.494;2023-07-29T07:57:05;3.30;;;2.40;;
9767;SDS011;4923;52.520;13.494;2023-07-29T07:59:52;2.93;;;2.47;;
9767;SDS011;4923;52.520;13.494;2023-07-29T08:02:39;2.57;;;2.47;;
9767;SDS011;4923;52.520;13.494;2023-07-29T08:05:27;2.63;;;2.50;;
9767;SDS011;4923;52.520;13.494;2023-07-29T08:08:14;2.30;;;2.30;;
9767;SDS011;4923;52.520;13.494;2023-07-29T08:11:01;2.20;;;2.10;;
9767;SDS011;4923;52.520;13.494;2023-07-29T08:13:48;1.90;;;1.90;;
9767;SDS011;4923;52.520;13.494;2023-07-29T08:16:35;3.20;;;2.00;;
9767;SDS011;4923;52.520;13.494;2023-07-29T08:19:22;2.57;;;2.20;;
9767;SDS011;4923;52.520;13.494;2023-07-29T08:22:10;2.27;;;2.13;;
9767;SDS011;4923;52.520;13.494;2023-07-29T08:24:57;1.97;;;1.93;;
9767;SDS011;4923;52.520;13.494;2023-07-29T08:27:44;2.10;;;2.10;;
9767;SDS011;4923;52.520;13.494;2023-07-29T08:30:31;1.73;;;1.67;;
9767;SDS011;4923;52.520;13.494;2023-07-29T08:33:18;1.80;;;1.70;;
9767;SDS011;4923;52.520;13.494;2023-07-29T08:36:05;1.77;;;1.73;;
9767;SDS011;4923;52.520;13.494;2023-07-29T08:38:53;1.67;;;1.67;;
9767;SDS011;4923;52.520;13.494;2023-07-29T08:41:41;2.03;;;1.93;;
9767;SDS011;4923;52.520;13.494;2023-07-29T08:44:36;2.00;;;1.90;;
9767;SDS011;4923;52.520;13.494;2023-07-29T08:47:26;4.00;;;1.67;;
9767;SDS011;4923;52.520;13.494;2023-07-29T08:50:14;7.53;;;1.40;;
9767;SDS011;4923;52.520;13.494;2023-07-29T08:53:02;1.90;;;1.80;;
9767;SDS011;4923;52.520;13.494;2023-07-29T08:55:52;2.40;;;1.67;;
9767;SDS011;4923;52.520;13.494;2023-07-29T08:58:41;2.10;;;1.87;;
9767;SDS011;4923;52.520;13.494;2023-07-29T09:01:29;2.20;;;1.40;;
9767;SDS011;4923;52.520;13.494;2023-07-29T09:04:16;2.40;;;1.67;;
9767;SDS011;4923;52.520;13.494;2023-07-29T09:07:03;8.40;;;1.83;;
9767;SDS011;4923;52.520;13.494;2023-07-29T09:09:52;1.30;;;1.30;;
9767;SDS011;4923;52.520;13.494;2023-07-29T09:12:40;1.70;;;1.70;;
9767;SDS011;4923;52.520;13.494;2023-07-29T09:15:27;1.70;;;1.60;;
9767;SDS011;4923;52.520;13.494;2023-07-29T09:18:15;1.30;;;1.30;;
9767;SDS011;4923;52.520;13.494;2023-07-29T09:21:03;1.30;;;1.30;;
9767;SDS011;4923;52.520;13.494;2023-07-29T09:23:50;1.20;;;1.20;;
9767;SDS011;4923;52.520;13.494;2023-07-29T09:26:37;1.00;;;1.00;;
9767;SDS011;4923;52.520;13.494;2023-07-29T09:29:27;2.57;;;1.63;;
9767;SDS011;4923;52.520;13.494;2023-07-29T09:32:18;3.30;;;1.30;;
9767;SDS011;4923;52.520;13.494;2023-07-29T09:35:09;0.80;;;0.80;;
9767;SDS011;4923;52.520;13.494;2023-07-29T09:37:58;1.13;;;1.13;;
9767;SDS011;4923;52.520;13.494;2023-07-29T09:40:44;2.33;;;2.00;;
9767;SDS011;4923;52.520;13.494;2023-07-29T09:43:32;1.63;;;1.50;;
9767;SDS011;4923;52.520;13.494;2023-07-29T09:46:22;1.27;;;1.27;;
9767;SDS011;4923;52.520;13.494;2023-07-29T09:49:09;1.83;;;1.10;;
9767;SDS011;4923;52.520;13.494;2023-07-29T09:51:56;1.00;;;1.00;;
9767;SDS011;4923;52.520;13.494;2023-07-29T09:54:43;2.10;;;1.07;;
9767;SDS011;4923;52.520;13.494;2023-07-29T09:57:31;3.40;;;1.00;;
9767;SDS011;4923;52.520;13.494;2023-07-29T10:00:18;1.60;;;1.27;;
9767;SDS011;4923;52.520;13.494;2023-07-29T10:03:06;2.00;;;1.37;;
9767;SDS011;4923;52.520;13.494;2023-07-29T10:05:53;1.07;;;1.07;;
9767;SDS011;4923;52.520;13.494;2023-07-29T10:08:42;1.03;;;0.93;;
9767;SDS011;4923;52.520;13.494;2023-07-29T10:11:29;1.03;;;1.03;;
9767;SDS011;4923;52.520;13.494;2023-07-29T10:14:17;1.30;;;1.30;;
9767;SDS011;4923;52.520;13.494;2023-07-29T10:17:04;1.10;;;0.90;;
9767;SDS011;4923;52.520;13.494;2023-07-29T10:19:53;2.83;;;1.00;;
9767;SDS011;4923;52.520;13.494;2023-07-29T10:22:42;0.90;;;0.90;;
9767;SDS011;4923;52.520;13.494;2023-07-29T10:25:33;0.90;;;0.90;;
9767;SDS011;4923;52.520;13.494;2023-07-29T10:28:25;0.90;;;0.90;;
9767;SDS011;4923;52.520;13.494;2023-07-29T10:31:15;4.07;;;1.40;;
9767;SDS011;4923;52.520;13.494;2023-07-29T10:34:02;1.30;;;1.30;;
9767;SDS011;4923;52.520;13.494;2023-07-29T10:36:51;1.07;;;1.07;;
9767;SDS011;4923;52.520;13.494;2023-07-29T10:39:38;0.70;;;0.70;;
9767;SDS011;4923;52.520;13.494;2023-07-29T10:42:26;0.90;;;0.90;;
9767;SDS011;4923;52.520;13.494;2023-07-29T10:45:19;1.97;;;1.27;;
9767;SDS011;4923;52.520;13.494;2023-07-29T10:48:10;2.43;;;1.00;;
9767;SDS011;4923;52.520;13.494;2023-07-29T10:54:11;3.50;;;1.20;;
9767;SDS011;4923;52.520;13.494;2023-07-29T10:56:59;3.37;;;0.80;;
9767;SDS011;4923;52.520;13.494;2023-07-29T10:59:53;1.10;;;1.10;;
9767;SDS011;4923;52.520;13.494;2023-07-29T11:02:40;1.00;;;1.00;;
9767;SDS011;4923;52.520;13.494;2023-07-29T11:05:41;1.00;;;1.00;;
9767;SDS011;4923;52.520;13.494;2023-07-29T11:08:29;0.60;;;0.60;;
9767;SDS011;4923;52.520;13.494;2023-07-29T11:11:18;3.90;;;0.70;;
9767;SDS011;4923;52.520;13.494;2023-07-29T11:14:05;0.70;;;0.70;;
9767;SDS011;4923;52.520;13.494;2023-07-29T11:16:53;0.80;;;0.80;;
9767;SDS011;4923;52.520;13.494;2023-07-29T11:19:41;1.00;;;1.00;;
9767;SDS011;4923;52.520;13.494;2023-07-29T11:22:27;3.97;;;0.73;;
9767;SDS011;4923;52.520;13.494;2023-07-29T11:25:15;1.33;;;0.80;;
9767;SDS011;4923;52.520;13.494;2023-07-29T11:28:04;5.03;;;0.80;;
9767;SDS011;4923;52.520;13.494;2023-07-29T11:30:51;1.40;;;1.03;;
9767;SDS011;4923;52.520;13.494;2023-07-29T11:33:39;1.80;;;1.20;;
9767;SDS011;4923;52.520;13.494;2023-07-29T11:36:26;3.00;;;1.13;;
9767;SDS011;4923;52.520;13.494;2023-07-29T11:39:13;0.90;;;0.80;;
9767;SDS011;4923;52.520;13.494;2023-07-29T11:42:00;0.83;;;0.80;;
9767;SDS011;4923;52.520;13.494;2023-07-29T11:44:48;2.27;;;0.73;;
9767;SDS011;4923;52.520;13.494;2023-07-29T11:47:35;2.20;;;1.00;;
9767;SDS011;4923;52.520;13.494;2023-07-29T11:50:22;0.67;;;0.67;;
9767;SDS011;4923;52.520;13.494;2023-07-29T11:53:10;8.37;;;1.03;;
9767;SDS011;4923;52.520;13.494;2023-07-29T11:55:57;2.07;;;0.90;;
9767;SDS011;4923;52.520;13.494;2023-07-29T11:58:45;0.60;;;0.60;;
9767;SDS011;4923;52.520;13.494;2023-07-29T12:01:33;3.07;;;0.67;;
9767;SDS011;4923;52.520;13.494;2023-07-29T12:04:20;1.77;;;0.73;;
9767;SDS011;4923;52.520;13.494;2023-07-29T12:07:07;2.63;;;0.80;;
9767;SDS011;4923;52.520;13.494;2023-07-29T12:09:55;5.60;;;0.70;;
9767;SDS011;4923;52.520;13.494;2023-07-29T12:12:45;3.80;;;0.77;;
9767;SDS011;4923;52.520;13.494;2023-07-29T12:15:32;1.83;;;0.50;;
9767;SDS011;4923;52.520;13.494;2023-07-29T12:18:21;0.50;;;0.50;;
9767;SDS011;4923;52.520;13.494;2023-07-29T12:21:16;0.50;;;0.50;;
9767;SDS011;4923;52.520;13.494;2023-07-29T12:24:05;0.67;;;0.60;;
9767;SDS011;4923;52.520;13.494;2023-07-29T12:26:52;0.60;;;0.60;;
9767;SDS011;4923;52.520;13.494;2023-07-29T12:29:42;0.53;;;0.53;;
9767;SDS011;4923;52.520;13.494;2023-07-29T12:32:31;0.60;;;0.60;;
9767;SDS011;4923;52.520;13.494;2023-07-29T12:35:19;0.40;;;0.40;;
9767;SDS011;4923;52.520;13.494;2023-07-29T12:38:06;0.60;;;0.60;;
9767;SDS011;4923;52.520;13.494;2023-07-29T12:40:53;2.10;;;0.60;;
9767;SDS011;4923;52.520;13.494;2023-07-29T12:43:41;1.83;;;0.83;;
9767;SDS011;4923;52.520;13.494;2023-07-29T12:46:29;1.63;;;0.80;;
9767;SDS011;4923;52.520;13.494;2023-07-29T12:49:16;0.90;;;0.90;;
9767;SDS011;4923;52.520;13.494;2023-07-29T12:52:04;0.80;;;0.80;;
9767;SDS011;4923;52.520;13.494;2023-07-29T12:54:52;1.53;;;1.43;;
9767;SDS011;4923;52.520;13.494;2023-07-29T12:57:39;2.40;;;1.27;;
9767;SDS011;4923;52.520;13.494;2023-07-29T13:00:27;1.03;;;1.03;;
9767;SDS011;4923;52.520;13.494;2023-07-29T13:03:14;1.27;;;1.27;;
9767;SDS011;4923;52.520;13.494;2023-07-29T13:06:01;1.23;;;0.90;;
9767;SDS011;4923;52.520;13.494;2023-07-29T13:08:49;1.57;;;1.00;;
9767;SDS011;4923;52.520;13.494;2023-07-29T13:11:36;0.90;;;0.90;;
9767;SDS011;4923;52.520;13.494;2023-07-29T13:14:23;2.00;;;0.80;;
9767;SDS011;4923;52.520;13.494;2023-07-29T13:17:11;2.30;;;0.90;;
9767;SDS011;4923;52.520;13.494;2023-07-29T13:19:58;1.10;;;1.00;;
9767;SDS011;4923;52.520;13.494;2023-07-29T13:22:45;0.83;;;0.83;;
9767;SDS011;4923;52.520;13.494;2023-07-29T13:25:33;2.67;;;0.90;;
9767;SDS011;4923;52.520;13.494;2023-07-29T13:28:20;2.47;;;1.10;;
9767;SDS011;4923;52.520;13.494;2023-07-29T13:31:07;0.87;;;0.87;;
9767;SDS011;4923;52.520;13.494;2023-07-29T13:33:54;1.33;;;1.20;;
9767;SDS011;4923;52.520;13.494;2023-07-29T13:36:40;1.83;;;1.00;;
9767;SDS011;4923;52.520;13.494;2023-07-29T13:39:27;1.27;;;1.03;;
9767;SDS011;4923;52.520;13.494;2023-07-29T13:42:15;1.00;;;1.00;;
9767;SDS011;4923;52.520;13.494;2023-07-29T13:45:02;1.00;;;1.00;;
9767;SDS011;4923;52.520;13.494;2023-07-29T13:47:50;1.93;;;0.90;;
9767;SDS011;4923;52.520;13.494;2023-07-29T13:50:36;1.13;;;1.13;;
9767;SDS011;4923;52.520;13.494;2023-07-29T13:53:23;1.90;;;1.00;;
9767;SDS011;4923;52.520;13.494;2023-07-29T13:56:11;1.43;;;1.00;;
9767;SDS011;4923;52.520;13.494;2023-07-29T13:58:59;0.80;;;0.80;;
9767;SDS011;4923;52.520;13.494;2023-07-29T14:01:46;0.73;;;0.73;;
9767;SDS011;4923;52.520;13.494;2023-07-29T14:04:33;2.80;;;0.80;;
9767;SDS011;4923;52.520;13.494;2023-07-29T14:07:20;0.70;;;0.70;;
9767;SDS011;4923;52.520;13.494;2023-07-29T14:10:06;1.20;;;1.10;;
9767;SDS011;4923;52.520;13.494;2023-07-29T14:12:53;0.70;;;0.60;;
9767;SDS011;4923;52.520;13.494;2023-07-29T14:15:41;0.70;;;0.70;;
9767;SDS011;4923;52.520;13.494;2023-07-29T14:18:30;0.93;;;0.60;;
9767;SDS011;4923;52.520;13.494;2023-07-29T14:21:17;0.60;;;0.60;;
9767;SDS011;4923;52.520;13.494;2023-07-29T14:24:04;0.87;;;0.60;;
9767;SDS011;4923;52.520;13.494;2023-07-29T14:26:51;2.83;;;0.90;;
9767;SDS011;4923;52.520;13.494;2023-07-29T14:29:38;1.90;;;0.70;;
9767;SDS011;4923;52.520;13.494;2023-07-29T14:32:26;2.13;;;0.70;;
9767;SDS011;4923;52.520;13.494;2023-07-29T14:35:13;0.60;;;0.60;;
9767;SDS011;4923;52.520;13.494;2023-07-29T14:38:00;1.80;;;0.60;;
9767;SDS011;4923;52.520;13.494;2023-07-29T14:40:47;0.70;;;0.70;;
9767;SDS011;4923;52.520;13.494;2023-07-29T14:43:36;0.60;;;0.60;;
9767;SDS011;4923;52.520;13.494;2023-07-29T14:46:23;0.93;;;0.73;;
9767;SDS011;4923;52.520;13.494;2023-07-29T14:49:11;0.50;;;0.50;;
9767;SDS011;4923;52.520;13.494;2023-07-29T14:51:58;0.80;;;0.80;;
9767;SDS011;4923;52.520;13.494;2023-07-29T14:54:45;0.60;;;0.60;;
9767;SDS011;4923;52.520;13.494;2023-07-29T14:57:31;0.53;;;0.50;;
9767;SDS011;4923;52.520;13.494;2023-07-29T15:00:18;7.03;;;0.77;;
9767;SDS011;4923;52.520;13.494;2023-07-29T15:03:05;0.70;;;0.70;;
9767;SDS011;4923;52.520;13.494;2023-07-29T15:05:54;0.50;;;0.50;;
9767;SDS011;4923;52.520;13.494;2023-07-29T15:08:43;7.10;;;0.80;;
9767;SDS011;4923;52.520;13.494;2023-07-29T15:11:30;0.60;;;0.60;;
9767;SDS011;4923;52.520;13.494;2023-07-29T15:14:18;0.70;;;0.70;;
9767;SDS011;4923;52.520;13.494;2023-07-29T15:17:05;0.60;;;0.60;;
9767;SDS011;4923;52.520;13.494;2023-07-29T15:19:52;0.97;;;0.60;;
9767;SDS011;4923;52.520;13.494;2023-07-29T15:22:40;0.60;;;0.60;;
9767;SDS011;4923;52.520;13.494;2023-07-29T15:25:27;0.80;;;0.80;;
9767;SDS011;4923;52.520;13.494;2023-07-29T15:28:14;0.70;;;0.70;;
9767;SDS011;4923;52.520;13.494;2023-07-29T15:31:01;0.60;;;0.60;;
9767;SDS011;4923;52.520;13.494;2023-07-29T15:33:48;0.70;;;0.70;;
9767;SDS011;4923;52.520;13.494;2023-07-29T15:36:35;0.60;;;0.60;;
9767;SDS011;4923;52.520;13.494;2023-07-29T15:39:23;0.63;;;0.63;;
9767;SDS011;4923;52.520;13.494;2023-07-29T15:42:10;0.80;;;0.80;;
9767;SDS011;4923;52.520;13.494;2023-07-29T15:44:57;2.00;;;0.70;;
9767;SDS011;4923;52.520;13.494;2023-07-29T15:47:44;0.70;;;0.70;;
9767;SDS011;4923;52.520;13.494;2023-07-29T15:50:31;0.97;;;0.97;;
9767;SDS011;4923;52.520;13.494;2023-07-29T15:53:18;1.40;;;1.40;;
9767;SDS011;4923;52.520;13.494;2023-07-29T15:56:06;0.87;;;0.87;;
9767;SDS011;4923;52.520;13.494;2023-07-29T15:58:53;1.13;;;0.90;;
9767;SDS011;4923;52.520;13.494;2023-07-29T16:01:40;1.50;;;1.40;;
9767;SDS011;4923;52.520;13.494;2023-07-29T16:04:27;1.50;;;1.50;;
9767;SDS011;4923;52.520;13.494;2023-07-29T16:07:14;7.03;;;1.77;;
9767;SDS011;4923;52.520;13.494;2023-07-29T16:10:00;2.97;;;1.70;;
9767;SDS011;4923;52.520;13.494;2023-07-29T16:12:49;1.90;;;1.63;;
9767;SDS011;4923;52.520;13.494;2023-07-29T16:15:35;2.43;;;2.03;;
9767;SDS011;4923;52.520;13.494;2023-07-29T16:18:22;1.83;;;1.73;;
9767;SDS011;4923;52.520;13.494;2023-07-29T16:21:09;2.00;;;1.07;;
9767;SDS011;4923;52.520;13.494;2023-07-29T16:23:56;5.20;;;1.50;;
9767;SDS011;4923;52.520;13.494;2023-07-29T16:26:43;3.63;;;1.30;;
9767;SDS011;4923;52.520;13.494;2023-07-29T16:29:31;1.03;;;1.03;;
9767;SDS011;4923;52.520;13.494;2023-07-29T16:32:18;1.53;;;1.53;;
9767;SDS011;4923;52.520;13.494;2023-07-29T16:35:05;1.50;;;1.40;;
9767;SDS011;4923;52.520;13.494;2023-07-29T16:37:52;2.20;;;1.67;;
9767;SDS011;4923;52.520;13.494;2023-07-29T16:40:40;1.30;;;1.20;;
9767;SDS011;4923;52.520;13.494;2023-07-29T16:43:27;1.83;;;1.40;;
9767;SDS011;4923;52.520;13.494;2023-07-29T16:46:15;2.63;;;1.00;;
9767;SDS011;4923;52.520;13.494;2023-07-29T16:49:02;1.50;;;1.40;;
9767;SDS011;4923;52.520;13.494;2023-07-29T16:51:49;1.57;;;1.57;;
9767;SDS011;4923;52.520;13.494;2023-07-29T16:54:36;3.13;;;1.67;;
9767;SDS011;4923;52.520;13.494;2023-07-29T16:57:23;6.50;;;2.00;;
9767;SDS011;4923;52.520;13.494;2023-07-29T17:00:10;1.77;;;1.63;;
9767;SDS011;4923;52.520;13.494;2023-07-29T17:02:59;1.77;;;1.67;;
9767;SDS011;4923;52.520;13.494;2023-07-29T17:05:46;3.17;;;2.20;;